Terminal Aerodrome Forecast
Issued by NWS

Home | Current Version | Previous Version | Text Only | Print | Product List | Glossary On
Versions: 1 2 3 4 5 6 7 8 9 10 11 12 13
000
FTUS42 KMLB 212300 AAA
TAFISM
TAF AMD
KISM 212343Z 2200/2224 12008KT P6SM VCTS SCT035CB SCT050 OVC250
      TEMPO 2200/2201 VRB18G30KT TS BKN035CB OVC100
     FM220200 14002KT P6SM FEW050 SCT250
     FM220600 00000KT P6SM FEW250
     FM221400 19002KT P6SM FEW040
      AMD NOT SKED 2202/2211=

USA.gov is the U.S. government's official web portal to all federal, state and local government web resources and services.